Latest Weather Observations for Clermont Airport

IDQ60801

Issued at 9:32 pm EST Saturday 18 April 2015 (issued every 30 minutes, with the page automatically refreshed every 10 minutes)

About weather observations | Map of weather stations | Latest weather observations for QLD | Other Formats
Station Details ID: 035124 Name: CLERMONT AIRPORT Lat: -22.78 Lon: 147.62 Height: 270.27 m
Data from the previous 72 hours. | See also: Recent months at Clermont Airport
Date/Time
EST
Temp
°C
App
Temp
°C
Dew
Point
Rel
Hum
%
Delta-T
°C
Wind Press
QNH
hPa
Press
MSL
hPa
Rain
since 9 am
mm
Dir
 
Spd
km/h
Gust
km/h
Spd
kts
Gust
kts
18/09:30pm 24.4 25.0 14.2 53 6.1 E 4 7 2 4 1018.4 1017.1 0.0
18/09:00pm 24.8 25.5 14.6 53 6.1 ESE 4 9 2 5 1018.3 1017.0 0.0
18/08:30pm 24.6 25.9 14.1 52 6.3 CALM 0 2 0 1 1017.7 1016.5 0.0
18/08:00pm 25.2 25.8 14.3 50 6.5 NE 4 6 2 3 1017.3 1016.1 0.0
18/07:30pm 25.4 25.9 13.9 49 6.9 ENE 4 7 2 4 1016.9 1015.7 0.0
18/07:00pm 26.1 27.0 13.9 47 7.3 ENE 2 4 1 2 1016.6 1015.4 0.0
18/06:30pm 27.2 28.2 14.2 44 7.9 ENE 2 4 1 2 1016.3 1015.1 0.0
18/06:00pm 28.4 29.0 14.3 42 8.6 E 4 7 2 4 1016.0 1014.8 0.0
18/05:30pm 29.8 30.1 13.5 36 9.8 ENE 4 6 2 3 1015.9 1014.7 0.0
18/05:00pm 30.3 30.3 13.6 36 10.1 NNE 6 7 3 4 1015.8 1014.6 0.0
18/04:30pm 30.3 30.9 13.1 34 10.3 NE 2 6 1 3 1015.7 1014.4 0.0
18/04:00pm 30.7 30.7 13.5 35 10.4 N 6 15 3 8 1015.7 1014.4 0.0
18/03:30pm 31.1 31.4 13.4 34 10.7 ESE 4 11 2 6 1015.6 1014.3 0.0
18/03:00pm 30.5 29.8 13.3 35 10.4 NE 9 15 5 8 1015.9 1014.7 0.0
18/02:30pm 29.9 30.3 13.6 36 9.9 NNE 4 11 2 6 1016.0 1014.8 0.0
18/02:00pm 29.4 28.7 13.2 37 9.7 NE 9 20 5 11 1016.2 1015.0 0.0
18/01:30pm 30.3 29.7 13.6 36 10.1 E 9 20 5 11 1016.5 1015.3 0.0
18/01:00pm 29.6 28.6 14.6 40 9.2 NE 13 20 7 11 1017.1 1015.9 0.0
18/12:30pm 28.9 28.5 15.1 43 8.5 ENE 11 20 6 11 1017.8 1016.6 0.0
18/12:00pm 29.1 28.1 15.6 44 8.4 ENE 15 24 8 13 1018.4 1017.1 0.0
18/11:30am 27.5 27.8 16.1 49 7.1 E 9 19 5 10 1019.1 1017.9 0.0
18/11:00am 27.8 27.5 16.4 50 7.1 ENE 13 28 7 15 1019.4 1018.2 0.0
18/10:30am 26.6 26.6 16.2 52 6.5 ENE 11 19 6 10 1020.2 1019.0 0.0
18/10:00am 26.4 26.5 16.6 55 6.1 E 11 28 6 15 1020.5 1019.3 0.0
18/09:30am 25.9 26.7 17.3 59 5.4 E 9 17 5 9 1020.6 1019.4 0.0
18/09:00am 24.5 24.7 16.7 61 4.8 ENE 11 20 6 11 1020.3 1019.1 0.0
18/08:30am 23.1 24.0 17.6 71 3.5 E 9 15 5 8 1020.2 1019.0 0.0
18/08:00am 22.0 23.5 18.0 78 2.5 ESE 7 15 4 8 1019.8 1018.6 0.0
18/07:30am 20.9 22.4 17.7 82 2.0 SE 6 11 3 6 1019.4 1018.2 0.0
18/07:00am 20.0 21.6 17.8 87 1.4 SE 6 7 3 4 1019.3 1018.1 0.0
18/06:30am 19.4 21.2 17.4 88 1.2 ESE 4 9 2 5 1018.8 1017.5 0.0
18/06:00am 19.5 21.0 17.5 88 1.2 ESE 6 11 3 6 1018.5 1017.2 0.0
18/05:30am 19.3 20.5 17.3 88 1.2 ESE 7 11 4 6 1018.1 1016.8 0.0
18/05:00am 18.9 20.5 16.9 88 1.2 ESE 4 9 2 5 1018.1 1016.8 0.0
18/04:30am 18.8 19.9 16.6 87 1.3 SSE 6 6 3 3 1018.2 1016.9 0.0
18/04:00am 19.2 21.1 16.8 86 1.5 SSE 2 4 1 2 1018.1 1016.8 0.0
18/03:30am 19.0 20.8 16.4 85 1.6 ESE 2 6 1 3 1017.9 1016.7 0.0
18/03:00am 19.5 21.7 16.5 83 1.8 CALM 0 0 0 0 1018.1 1016.8 0.0
18/02:30am 19.8 21.6 16.4 81 2.1 ESE 2 6 1 3 1018.2 1016.9 0.0
18/02:00am 20.5 21.6 16.5 78 2.4 E 6 7 3 4 1018.6 1017.3 0.0
18/01:30am 21.2 22.3 16.6 75 2.8 E 6 9 3 5 1019.1 1017.9 0.0
18/01:00am 21.5 22.9 16.5 73 3.1 E 4 9 2 5 1019.5 1018.3 0.0
18/12:30am 22.0 24.0 16.1 69 3.6 CALM 0 0 0 0 1020.0 1018.8 0.0
 
Date/Time
EST
Temp
°C
App
Temp
°C
Dew
Point
Rel
Hum
%
Delta-T
°C
Wind Press
QNH
hPa
Press
MSL
hPa
Rain
since 9 am
mm
Dir
 
Spd
km/h
Gust
km/h
Spd
kts
Gust
kts
17/11:30pm 22.8 24.6 16.4 67 3.9 E 2 6 1 3 1020.2 1019.0 0.0
17/11:00pm 22.4 24.4 16.0 67 3.9 CALM 0 4 0 2 1019.9 1018.7 0.0
17/10:30pm 22.9 24.2 16.2 66 4.1 E 4 11 2 6 1019.7 1018.5 0.0
17/10:00pm 23.5 24.0 16.5 65 4.3 NE 9 17 5 9 1019.5 1018.3 0.0
17/09:30pm 23.6 23.9 15.9 62 4.7 NE 9 17 5 9 1019.1 1017.9 0.0
17/09:00pm 23.9 24.5 15.7 60 5.0 NE 7 13 4 7 1018.9 1017.6 0.0
17/08:30pm 24.3 24.7 15.2 57 5.5 ENE 7 13 4 7 1018.6 1017.3 0.0
17/08:00pm 24.5 24.6 14.0 52 6.2 NE 6 13 3 7 1018.2 1016.9 0.0
17/07:30pm 24.6 24.5 13.2 49 6.7 ENE 6 11 3 6 1017.7 1016.5 0.0
17/07:00pm 25.9 25.8 13.4 46 7.4 ENE 6 9 3 5 1017.3 1016.1 0.0
17/06:30pm 26.4 27.1 14.5 48 7.2 ENE 4 9 2 5 1017.3 1016.1 0.0
17/06:00pm 26.9 27.2 15.0 48 7.3 ENE 7 13 4 7 1017.2 1016.0 0.0
17/05:30pm 27.4 27.4 15.1 47 7.5 E 9 15 5 8 1016.9 1015.7 0.0
17/05:00pm 27.9 27.8 14.9 45 8.0 ENE 9 17 5 9 1016.6 1015.4 0.0
17/04:30pm 28.1 27.4 14.3 42 8.4 ENE 11 20 6 11 1016.4 1015.2 0.0
17/04:00pm 28.1 26.9 15.1 45 8.0 ENE 15 26 8 14 1016.1 1014.9 0.0
17/03:30pm 28.5 26.6 14.3 41 8.6 E 17 28 9 15 1016.2 1015.0 0.0
17/03:00pm 29.2 27.7 13.0 37 9.7 ENE 13 26 7 14 1016.2 1015.0 0.0
17/02:30pm 30.5 29.5 14.6 38 9.8 ENE 13 26 7 14 1016.3 1015.1 0.0
17/02:00pm 29.4 28.6 14.0 39 9.3 E 11 22 6 12 1016.7 1015.5 0.0
17/01:30pm 28.8 27.4 13.5 39 9.2 E 13 22 7 12 1017.1 1015.9 0.0
17/01:00pm 29.1 27.9 14.1 40 9.1 E 13 24 7 13 1017.7 1016.5 0.0
17/12:30pm 28.4 26.9 14.3 42 8.6 E 15 22 8 12 1018.5 1017.2 0.0
17/12:00pm 28.1 26.4 13.6 41 8.7 ENE 15 32 8 17 1019.2 1018.0 0.0
17/11:30am 27.8 26.0 14.4 43 8.1 ENE 17 35 9 19 1019.7 1018.5 0.0
17/11:00am 27.5 27.7 15.8 48 7.2 E 9 20 5 11 1020.5 1019.3 0.0
17/10:30am 25.7 25.6 16.0 55 6.0 E 11 19 6 10 1021.2 1020.0 0.0
17/10:00am 24.8 24.0 16.2 58 5.3 ESE 15 22 8 12 1021.7 1020.5 0.0
17/09:30am 24.0 24.2 16.8 64 4.5 E 11 19 6 10 1022.1 1020.8 0.0
17/09:00am 23.2 23.8 16.7 67 4.0 ESE 9 17 5 9 1022.4 1021.2 0.0
17/08:30am 22.4 23.5 16.7 70 3.5 SE 6 9 3 5 1022.4 1021.2 0.0
17/08:00am 20.5 21.2 16.1 76 2.7 SE 7 13 4 7 1022.3 1021.0 0.0
17/07:30am 19.3 20.0 16.0 81 2.0 SSE 7 11 4 6 1022.0 1020.7 0.0
17/07:00am 18.3 19.0 16.1 87 1.3 SE 7 13 4 7 1021.6 1020.4 0.0
17/06:30am 16.8 17.8 15.3 91 0.9 SSE 4 6 2 3 1021.1 1019.9 0.0
17/06:00am 15.7 16.9 13.9 89 1.0 CALM 0 4 0 2 1020.8 1019.6 0.0
17/05:30am 15.6 16.6 13.1 85 1.4 CALM 0 0 0 0 1020.5 1019.3 0.0
17/05:00am 15.9 16.9 13.2 84 1.5 CALM 0 0 0 0 1020.5 1019.3 0.0
17/04:30am 16.4 17.6 13.7 84 1.5 CALM 0 4 0 2 1020.2 1019.0 0.0
17/04:00am 17.4 18.9 14.7 84 1.6 CALM 0 0 0 0 1020.1 1018.9 0.0
17/03:30am 17.1 18.4 14.0 82 1.8 CALM 0 0 0 0 1020.2 1019.0 0.0
17/03:00am 17.6 18.9 14.1 80 2.0 CALM 0 0 0 0 1020.4 1019.2 0.0
17/02:30am 18.5 20.0 14.6 78 2.3 CALM 0 0 0 0 1020.4 1019.2 0.0
17/02:00am 19.5 20.9 14.5 73 2.9 CALM 0 0 0 0 1020.7 1019.5 0.0
17/01:30am 20.3 22.0 15.3 73 3.0 CALM 0 0 0 0 1020.9 1019.7 0.0
17/01:00am 20.7 21.8 15.5 72 3.1 ENE 4 7 2 4 1021.1 1019.9 0.0
17/12:30am 21.3 22.0 15.6 70 3.4 ENE 6 9 3 5 1021.5 1020.3 0.0
17/12:00am 21.8 22.6 15.9 69 3.6 ENE 6 11 3 6 1021.7 1020.5 0.0
 
Date/Time
EST
Temp
°C
App
Temp
°C
Dew
Point
Rel
Hum
%
Delta-T
°C
Wind Press
QNH
hPa
Press
MSL
hPa
Rain
since 9 am
mm
Dir
 
Spd
km/h
Gust
km/h
Spd
kts
Gust
kts
16/11:30pm 22.6 23.4 15.9 66 4.1 ENE 6 11 3 6 1021.8 1020.6 0.0
16/11:00pm 23.0 23.4 16.3 66 4.1 ENE 9 19 5 10 1022.1 1020.8 0.0
16/10:30pm 23.5 23.3 15.8 62 4.7 ENE 11 19 6 10 1022.1 1020.8 0.0
16/10:00pm 23.4 23.3 13.8 54 5.7 ENE 7 15 4 8 1022.0 1020.7 0.0
16/09:30pm 22.9 22.6 11.6 49 6.4 E 4 7 2 4 1021.7 1020.5 0.0
16/09:00pm 22.1 22.0 10.9 49 6.2 ESE 2 6 1 3 1021.6 1020.4 0.0
16/08:30pm 22.2 22.1 10.7 48 6.4 E 2 6 1 3 1021.2 1020.0 0.0
16/08:00pm 23.3 23.3 11.0 46 6.9 ESE 2 4 1 2 1020.9 1019.7 0.0
16/07:30pm 24.4 24.3 10.7 42 7.7 ESE 2 4 1 2 1020.6 1019.4 0.0
16/07:00pm 25.3 24.7 10.4 39 8.4 ESE 4 6 2 3 1020.0 1018.8 0.0
16/06:30pm 26.6 25.6 10.3 36 9.2 ESE 6 9 3 5 1019.6 1018.4 0.0
16/06:00pm 27.4 25.9 9.3 32 10.1 ESE 7 11 4 6 1019.5 1018.3 0.0
16/05:30pm 28.8 26.1 9.0 29 11.1 SE 13 20 7 11 1019.2 1018.0 0.0
16/05:00pm 29.6 26.4 8.6 27 11.7 SE 15 24 8 13 1019.0 1017.7 0.0
16/04:30pm 29.8 26.8 7.7 25 12.2 ESE 13 22 7 12 1018.9 1017.6 0.0
16/04:00pm 30.1 26.2 7.3 24 12.5 ESE 17 26 9 14 1018.9 1017.6 0.0
16/03:30pm 31.0 27.7 8.1 24 12.8 ESE 15 26 8 14 1018.9 1017.6 0.0
16/03:00pm 30.4 27.1 8.2 25 12.3 ESE 15 35 8 19 1019.0 1017.7 0.0
16/02:30pm 30.3 27.2 8.7 26 12.1 SE 15 26 8 14 1019.3 1018.1 0.0
16/02:00pm 30.3 26.4 8.7 26 12.1 ESE 19 30 10 16 1019.6 1018.4 0.0
16/01:30pm 30.4 27.5 9.8 28 11.8 ESE 15 26 8 14 1020.0 1018.8 0.0
16/01:00pm 29.2 26.4 9.9 30 11.0 ESE 15 24 8 13 1020.3 1019.1 0.0
16/12:30pm 29.4 26.0 10.5 31 10.9 E 19 30 10 16 1020.9 1019.7 0.0
16/12:00pm 28.5 26.2 11.6 35 9.8 E 15 24 8 13 1021.5 1020.3 0.0
16/11:30am 28.1 25.4 11.6 36 9.6 E 17 26 9 14 1022.3 1021.0 0.0
16/11:00am 27.6 24.7 12.4 39 8.9 ESE 19 32 10 17 1023.1 1021.9 0.0
16/10:30am 27.2 24.0 12.0 38 8.9 ESE 20 35 11 19 1023.6 1022.4 0.0
16/10:00am 25.8 24.0 13.3 46 7.4 ESE 15 22 8 12 1024.1 1022.9 0.0
16/09:30am 24.5 23.3 14.0 52 6.3 ESE 13 22 7 12 1024.2 1023.0 0.0
16/09:00am 23.1 22.7 15.2 61 4.8 ESE 11 19 6 10 1024.4 1023.2 0.0
16/08:30am 21.8 21.4 15.2 66 4.0 SE 11 17 6 9 1024.5 1023.3 0.0
16/08:00am 20.3 19.9 15.3 73 3.0 SE 11 17 6 9 1024.2 1023.0 0.0
16/07:30am 19.1 19.6 15.6 80 2.1 S 7 9 4 5 1024.2 1023.0 0.0
16/07:00am 17.6 18.2 15.4 87 1.3 SSE 6 6 3 3 1023.7 1022.5 0.0
16/06:30am 16.1 16.3 14.3 89 1.0 S 6 7 3 4 1023.5 1022.3 0.0
16/06:00am 15.7 15.7 13.7 88 1.1 S 6 6 3 3 1023.2 1022.0 0.0
16/05:30am 14.8 15.7 12.8 88 1.1 CALM 0 0 0 0 1023.1 1021.9 0.0
16/05:00am 15.9 17.0 13.4 85 1.4 CALM 0 0 0 0 1022.8 1021.6 0.0
16/04:30am 15.7 15.9 13.2 85 1.4 S 4 6 2 3 1022.7 1021.5 0.0
16/04:00am 16.3 16.4 13.8 85 1.4 SSW 6 7 3 4 1022.5 1021.3 0.0
16/03:30am 16.8 17.7 13.9 83 1.7 SSW 2 4 1 2 1022.6 1021.4 0.0
16/03:00am 17.1 18.2 13.6 80 2.0 CALM 0 0 0 0 1022.7 1021.5 0.0
16/02:30am 18.5 19.2 14.6 78 2.3 SSE 4 4 2 2 1022.9 1021.7 0.0
16/02:00am 19.9 21.0 15.5 76 2.6 SSE 4 6 2 3 1023.0 1021.8 0.0
16/01:30am 20.4 21.6 15.8 75 2.8 ESE 4 4 2 2 1023.1 1021.9 0.0
16/01:00am 20.8 22.3 15.8 73 3.0 E 2 6 1 3 1023.2 1022.0 0.0
16/12:30am 21.0 21.9 15.1 69 3.5 E 4 6 2 3 1023.5 1022.3 0.0
16/12:00am 21.5 22.7 14.9 66 3.9 E 2 6 1 3 1023.4 1022.2 0.0
 
Date/Time
EST
Temp
°C
App
Temp
°C
Dew
Point
Rel
Hum
%
Delta-T
°C
Wind Press
QNH
hPa
Press
MSL
hPa
Rain
since 9 am
mm
Dir
 
Spd
km/h
Gust
km/h
Spd
kts
Gust
kts
15/11:30pm 22.3 22.8 14.9 63 4.4 ENE 6 9 3 5 1023.4 1022.2 0.0
15/11:00pm 22.9 23.1 14.7 60 4.9 NE 7 15 4 8 1023.3 1022.1 0.0
15/10:30pm 23.2 22.8 14.2 57 5.3 NE 9 19 5 10 1023.3 1022.1 0.0
15/10:00pm 22.0 21.7 11.4 51 5.9 ENE 4 13 2 7 1023.4 1022.2 0.0

Other Formats:

Comma delimited format used in spreadsheet applications
http://www.bom.gov.au/fwo/IDQ60801/IDQ60801.94395.axf

JavaScript Object Notation format (JSON) in row-major order
http://www.bom.gov.au/fwo/IDQ60801/IDQ60801.94395.json